createdAt,value
2016-05-02T20:47:54.740Z,22.91
2016-05-02T20:48:54.477Z,23.01
2016-05-02T20:49:54.511Z,22.97
2016-05-02T20:50:54.858Z,22.97
2016-05-02T20:51:54.907Z,22.97
2016-05-02T20:52:54.956Z,22.92
2016-05-02T20:53:54.990Z,22.97
2016-05-02T20:54:55.040Z,22.96
2016-05-02T20:55:55.075Z,22.96
2016-05-02T20:56:54.967Z,22.97
2016-05-02T20:57:55.142Z,22.94
2016-05-02T20:58:55.036Z,22.99
2016-05-02T20:59:55.085Z,23.03
2016-05-02T21:00:55.118Z,23
2016-05-02T21:01:55.152Z,22.96
2016-05-02T21:02:55.062Z,22.94
2016-05-02T21:03:55.268Z,22.94
2016-05-02T21:04:55.457Z,23.01
2016-05-02T21:05:55.491Z,23.04
2016-05-02T21:06:55.526Z,22.94
2016-05-02T21:07:55.591Z,22.97
2016-05-02T21:08:55.624Z,23.04
2016-05-02T21:09:55.690Z,23.01
2016-05-02T21:10:55.536Z,23.04
2016-05-02T21:11:55.554Z,23.04
2016-05-02T21:12:55.604Z,22.97
2016-05-02T21:13:55.638Z,22.94
2016-05-02T21:14:55.829Z,23.01
2016-05-02T21:15:55.722Z,22.94
2016-05-02T21:16:55.912Z,23.03
2016-05-02T21:17:55.962Z,22.92
2016-05-02T21:18:55.995Z,22.97
2016-05-02T21:19:56.029Z,22.94
2016-05-02T21:20:56.079Z,22.94
2016-05-02T21:21:55.972Z,22.99
2016-05-02T21:22:56.162Z,23.09
2016-05-02T21:23:56.197Z,22.96
2016-05-02T21:24:56.246Z,22.97
2016-05-02T21:25:56.280Z,23
2016-05-02T21:26:56.313Z,22.99
2016-05-02T21:27:56.363Z,22.89
2016-05-02T21:28:56.413Z,22.94
2016-05-02T21:29:56.291Z,22.92
2016-05-02T21:30:56.558Z,22.92
2016-05-02T21:31:56.561Z,22.99
2016-05-02T21:32:56.596Z,22.91
2016-05-02T21:33:56.457Z,23.01
2016-05-02T21:34:56.664Z,22.97
2016-05-02T21:35:56.682Z,22.96
2016-05-02T21:36:58.356Z,22.92
2016-05-02T21:37:56.782Z,22.89
2016-05-02T21:38:56.659Z,22.97
2016-05-02T21:39:56.848Z,22.97
2016-05-02T21:40:56.898Z,22.97
2016-05-02T21:41:56.932Z,22.91
2016-05-02T21:42:56.966Z,22.99
2016-05-02T21:43:57.015Z,22.94
2016-05-02T21:44:57.065Z,22.96
2016-05-02T21:45:57.098Z,22.92
2016-05-02T21:46:56.976Z,22.96
2016-05-02T21:47:57.184Z,22.96
2016-05-02T21:48:57.217Z,23
2016-05-02T21:49:57.281Z,22.99
2016-05-02T21:50:57.144Z,23.03
2016-05-02T21:51:58.600Z,22.97
2016-05-02T21:52:57.384Z,22.97
2016-05-02T21:53:57.417Z,22.96
2016-05-02T21:54:57.467Z,22.97
2016-05-02T21:55:57.517Z,23.01
2016-05-02T21:56:57.550Z,22.94
2016-05-02T21:57:57.585Z,23.01
2016-05-02T21:58:57.634Z,22.97
2016-05-02T21:59:57.669Z,22.99
2016-05-02T22:00:57.546Z,23.01
2016-05-02T22:01:57.751Z,22.97
2016-05-02T22:02:57.785Z,22.91
2016-05-02T22:03:57.836Z,22.94
2016-05-02T22:04:57.869Z,22.94
2016-05-02T22:05:57.919Z,23.03
2016-05-02T22:06:57.796Z,22.99
2016-05-02T22:07:57.987Z,22.97
2016-05-02T22:08:58.036Z,22.91
2016-05-02T22:09:58.071Z,22.91
2016-05-02T22:10:57.963Z,23.04
2016-05-02T22:11:57.998Z,22.99
2016-05-02T22:12:58.250Z,22.86
2016-05-02T22:13:59.049Z,22.89
2016-05-02T22:14:58.271Z,22.96
2016-05-02T22:15:58.164Z,23.01
2016-05-02T22:16:58.354Z,23.01
2016-05-02T22:17:58.404Z,22.92
2016-05-02T22:18:58.437Z,22.89
2016-05-02T22:19:58.472Z,22.86
2016-05-02T22:20:58.522Z,22.89
2016-05-02T22:21:58.571Z,22.97
2016-05-02T22:22:58.605Z,22.99
2016-05-02T22:23:58.639Z,22.97
2016-05-02T22:24:58.533Z,22.97
2016-05-02T22:25:58.722Z,22.81
2016-05-02T22:26:58.834Z,22.85
2016-05-02T22:27:58.806Z,22.91
2016-05-02T22:28:58.856Z,22.92
2016-05-02T22:29:58.889Z,22.96
2016-05-02T22:30:58.924Z,22.92
2016-05-02T22:31:58.972Z,22.96
2016-05-02T22:32:59.022Z,22.88
2016-05-02T22:33:59.088Z,22.81
2016-05-02T22:34:59.091Z,22.81
2016-05-02T22:35:59.218Z,22.88
2016-05-02T22:37:00.877Z,22.92
2016-05-02T22:37:59.224Z,22.89
2016-05-02T22:38:59.257Z,22.86
2016-05-02T22:39:59.338Z,22.99
2016-05-02T22:40:59.184Z,22.92
2016-05-02T22:41:59.453Z,22.85
2016-05-02T22:42:59.409Z,22.89
2016-05-02T22:43:59.458Z,22.89
2016-05-02T22:44:59.492Z,22.85
2016-05-02T22:45:59.745Z,22.94
2016-05-02T22:46:59.576Z,22.88
2016-05-02T22:47:59.469Z,22.92
2016-05-02T22:48:59.504Z,22.92
2016-05-02T22:49:59.709Z,22.97
2016-05-02T22:50:59.586Z,22.89
2016-05-02T22:52:00.106Z,22.86
2016-05-02T22:52:59.654Z,22.97
2016-05-02T22:53:59.875Z,22.88
2016-05-02T22:54:59.926Z,22.89
2016-05-02T22:55:59.912Z,22.89
2016-05-02T22:57:00.009Z,22.84
2016-05-02T22:57:59.871Z,22.85
2016-05-02T22:59:00.061Z,22.94
2016-05-02T23:00:00.111Z,22.97
2016-05-02T23:01:00.161Z,22.85
2016-05-02T23:02:00.195Z,22.84
2016-05-02T23:03:00.260Z,22.89
2016-05-02T23:04:00.263Z,22.89
2016-05-02T23:05:00.312Z,22.84
2016-05-02T23:06:00.346Z,22.89
2016-05-02T23:07:00.238Z,22.86
2016-05-02T23:08:00.445Z,22.86
2016-05-02T23:09:00.307Z,22.86
2016-05-02T23:10:00.513Z,22.84
2016-05-02T23:11:00.563Z,22.86
2016-05-02T23:12:00.612Z,22.82
2016-05-02T23:13:00.474Z,22.89
2016-05-02T23:14:00.680Z,22.82
2016-05-02T23:15:00.729Z,22.81
2016-05-02T23:16:00.920Z,22.89
2016-05-02T23:17:00.641Z,22.86
2016-05-02T23:18:00.845Z,22.86
2016-05-02T23:19:00.882Z,22.84
2016-05-02T23:20:00.923Z,22.91
2016-05-02T23:21:00.807Z,22.85
2016-05-02T23:22:01.247Z,22.92
2016-05-02T23:23:01.031Z,22.96
2016-05-02T23:24:01.081Z,22.86
2016-05-02T23:25:01.114Z,22.85
2016-05-02T23:26:01.164Z,22.88
2016-05-02T23:27:01.199Z,22.91
2016-05-02T23:28:01.233Z,22.91
2016-05-02T23:29:01.282Z,22.88
2016-05-02T23:30:01.315Z,22.86
2016-05-02T23:31:01.350Z,22.81
2016-05-02T23:32:01.399Z,22.82
2016-05-02T23:33:01.449Z,22.88
2016-05-02T23:34:01.499Z,22.78
2016-05-02T23:35:01.517Z,22.82
2016-05-02T23:36:01.410Z,22.79
2016-05-02T23:37:01.601Z,22.82
2016-05-02T23:38:01.649Z,22.76
2016-05-02T23:39:01.684Z,22.82
2016-05-02T23:40:01.734Z,22.75
2016-05-02T23:41:01.782Z,22.78
2016-05-02T23:42:01.801Z,22.76
2016-05-02T23:43:01.851Z,22.79
2016-05-02T23:44:01.587Z,22.71
2016-05-02T23:45:01.778Z,22.67
2016-05-02T23:46:01.967Z,22.78
2016-05-02T23:47:02.017Z,22.71
2016-05-02T23:48:02.067Z,22.66
2016-05-02T23:49:01.929Z,22.71
2016-05-02T23:50:02.119Z,22.64
2016-05-02T23:51:02.184Z,22.66
2016-05-02T23:52:02.516Z,22.64
2016-05-02T23:53:02.252Z,22.76
2016-05-02T23:54:02.302Z,22.73
2016-05-02T23:55:02.336Z,22.73
2016-05-02T23:56:02.386Z,22.7
2016-05-02T23:57:02.419Z,22.66
2016-05-02T23:58:02.298Z,22.71
2016-05-02T23:59:02.347Z,22.67
